sensor_id;sensor_type;location;lat;lon;timestamp;P1;durP1;ratioP1;P2;durP2;ratioP2
3155;SDS011;1588;50.892;7.082;2022-09-13T00:02:24;7.00;;;4.20;;
3155;SDS011;1588;50.892;7.082;2022-09-13T00:07:27;7.40;;;4.50;;
3155;SDS011;1588;50.892;7.082;2022-09-13T00:12:48;12.50;;;4.47;;
3155;SDS011;1588;50.892;7.082;2022-09-13T00:17:52;5.90;;;4.00;;
3155;SDS011;1588;50.892;7.082;2022-09-13T00:22:54;7.73;;;4.40;;
3155;SDS011;1588;50.892;7.082;2022-09-13T00:27:56;8.00;;;4.27;;
3155;SDS011;1588;50.892;7.082;2022-09-13T00:33:00;8.43;;;4.00;;
3155;SDS011;1588;50.892;7.082;2022-09-13T00:38:04;6.50;;;4.30;;
3155;SDS011;1588;50.892;7.082;2022-09-13T00:43:09;13.27;;;5.10;;
3155;SDS011;1588;50.892;7.082;2022-09-13T00:48:19;9.60;;;4.93;;
3155;SDS011;1588;50.892;7.082;2022-09-13T00:53:25;7.40;;;4.67;;
3155;SDS011;1588;50.892;7.082;2022-09-13T00:58:32;12.70;;;4.40;;
3155;SDS011;1588;50.892;7.082;2022-09-13T01:03:37;9.40;;;4.60;;
3155;SDS011;1588;50.892;7.082;2022-09-13T01:08:42;7.73;;;4.80;;
3155;SDS011;1588;50.892;7.082;2022-09-13T01:13:53;8.10;;;4.50;;
3155;SDS011;1588;50.892;7.082;2022-09-13T01:18:59;9.67;;;4.67;;
3155;SDS011;1588;50.892;7.082;2022-09-13T01:24:06;6.40;;;4.53;;
3155;SDS011;1588;50.892;7.082;2022-09-13T01:29:35;6.63;;;4.13;;
3155;SDS011;1588;50.892;7.082;2022-09-13T01:35:06;15.03;;;5.20;;
3155;SDS011;1588;50.892;7.082;2022-09-13T01:40:22;12.00;;;5.10;;
3155;SDS011;1588;50.892;7.082;2022-09-13T01:45:35;8.13;;;4.53;;
3155;SDS011;1588;50.892;7.082;2022-09-13T01:50:45;6.80;;;4.50;;
3155;SDS011;1588;50.892;7.082;2022-09-13T01:55:54;7.57;;;4.57;;
3155;SDS011;1588;50.892;7.082;2022-09-13T02:01:07;6.27;;;4.67;;
3155;SDS011;1588;50.892;7.082;2022-09-13T02:06:18;9.27;;;4.07;;
3155;SDS011;1588;50.892;7.082;2022-09-13T02:11:22;23.03;;;5.00;;
3155;SDS011;1588;50.892;7.082;2022-09-13T02:16:26;9.27;;;4.83;;
3155;SDS011;1588;50.892;7.082;2022-09-13T02:21:35;12.40;;;4.93;;
3155;SDS011;1588;50.892;7.082;2022-09-13T02:26:40;7.47;;;4.60;;
3155;SDS011;1588;50.892;7.082;2022-09-13T02:31:47;11.50;;;4.30;;
3155;SDS011;1588;50.892;7.082;2022-09-13T02:36:55;8.43;;;4.60;;
3155;SDS011;1588;50.892;7.082;2022-09-13T02:42:00;6.87;;;4.20;;
3155;SDS011;1588;50.892;7.082;2022-09-13T02:52:36;5.90;;;4.10;;
3155;SDS011;1588;50.892;7.082;2022-09-13T02:57:51;5.60;;;3.83;;
3155;SDS011;1588;50.892;7.082;2022-09-13T03:03:02;7.50;;;4.70;;
3155;SDS011;1588;50.892;7.082;2022-09-13T03:08:08;8.43;;;4.43;;
3155;SDS011;1588;50.892;7.082;2022-09-13T03:13:23;9.13;;;4.90;;
3155;SDS011;1588;50.892;7.082;2022-09-13T03:18:42;6.50;;;4.60;;
3155;SDS011;1588;50.892;7.082;2022-09-13T03:23:54;9.87;;;4.93;;
3155;SDS011;1588;50.892;7.082;2022-09-13T03:29:12;17.97;;;4.60;;
3155;SDS011;1588;50.892;7.082;2022-09-13T03:34:29;4.90;;;3.90;;
3155;SDS011;1588;50.892;7.082;2022-09-13T03:39:41;10.20;;;4.27;;
3155;SDS011;1588;50.892;7.082;2022-09-13T03:45:08;6.23;;;4.40;;
3155;SDS011;1588;50.892;7.082;2022-09-13T03:50:14;10.10;;;4.70;;
3155;SDS011;1588;50.892;7.082;2022-09-13T03:55:20;9.70;;;4.13;;
3155;SDS011;1588;50.892;7.082;2022-09-13T04:00:23;13.40;;;4.50;;
3155;SDS011;1588;50.892;7.082;2022-09-13T04:05:29;7.10;;;4.10;;
3155;SDS011;1588;50.892;7.082;2022-09-13T04:10:32;9.13;;;4.53;;
3155;SDS011;1588;50.892;7.082;2022-09-13T04:15:35;6.17;;;4.30;;
3155;SDS011;1588;50.892;7.082;2022-09-13T04:20:38;7.47;;;4.20;;
3155;SDS011;1588;50.892;7.082;2022-09-13T04:25:42;8.33;;;4.20;;
3155;SDS011;1588;50.892;7.082;2022-09-13T04:30:45;6.57;;;4.03;;
3155;SDS011;1588;50.892;7.082;2022-09-13T04:35:47;6.27;;;3.73;;
3155;SDS011;1588;50.892;7.082;2022-09-13T04:40:56;5.77;;;4.10;;
3155;SDS011;1588;50.892;7.082;2022-09-13T04:46:00;7.47;;;4.27;;
3155;SDS011;1588;50.892;7.082;2022-09-13T04:51:05;4.87;;;3.80;;
3155;SDS011;1588;50.892;7.082;2022-09-13T04:56:09;6.10;;;4.13;;
3155;SDS011;1588;50.892;7.082;2022-09-13T05:01:14;6.40;;;4.37;;
3155;SDS011;1588;50.892;7.082;2022-09-13T05:06:18;5.50;;;3.73;;
3155;SDS011;1588;50.892;7.082;2022-09-13T05:11:32;6.70;;;4.37;;
3155;SDS011;1588;50.892;7.082;2022-09-13T05:16:35;7.03;;;4.50;;
3155;SDS011;1588;50.892;7.082;2022-09-13T05:21:37;10.60;;;3.80;;
3155;SDS011;1588;50.892;7.082;2022-09-13T05:26:41;6.80;;;4.17;;
3155;SDS011;1588;50.892;7.082;2022-09-13T05:31:43;12.57;;;3.90;;
3155;SDS011;1588;50.892;7.082;2022-09-13T05:36:46;7.20;;;4.50;;
3155;SDS011;1588;50.892;7.082;2022-09-13T05:41:51;6.63;;;4.03;;
3155;SDS011;1588;50.892;7.082;2022-09-13T05:46:54;10.00;;;4.27;;
3155;SDS011;1588;50.892;7.082;2022-09-13T05:51:57;9.30;;;4.03;;
3155;SDS011;1588;50.892;7.082;2022-09-13T05:57:01;10.30;;;4.47;;
3155;SDS011;1588;50.892;7.082;2022-09-13T06:02:11;8.43;;;4.67;;
3155;SDS011;1588;50.892;7.082;2022-09-13T06:07:13;10.10;;;3.90;;
3155;SDS011;1588;50.892;7.082;2022-09-13T06:12:17;5.97;;;3.80;;
3155;SDS011;1588;50.892;7.082;2022-09-13T06:17:19;8.67;;;4.07;;
3155;SDS011;1588;50.892;7.082;2022-09-13T06:22:21;7.60;;;3.70;;
3155;SDS011;1588;50.892;7.082;2022-09-13T06:27:25;5.97;;;4.30;;
3155;SDS011;1588;50.892;7.082;2022-09-13T06:32:29;6.50;;;4.10;;
3155;SDS011;1588;50.892;7.082;2022-09-13T06:37:31;9.90;;;4.30;;
3155;SDS011;1588;50.892;7.082;2022-09-13T06:42:35;7.53;;;4.60;;
3155;SDS011;1588;50.892;7.082;2022-09-13T06:47:37;6.93;;;4.20;;
3155;SDS011;1588;50.892;7.082;2022-09-13T06:52:46;6.13;;;3.70;;
3155;SDS011;1588;50.892;7.082;2022-09-13T06:57:49;10.60;;;3.80;;
3155;SDS011;1588;50.892;7.082;2022-09-13T07:02:52;7.00;;;4.10;;
3155;SDS011;1588;50.892;7.082;2022-09-13T07:07:54;19.10;;;4.70;;
3155;SDS011;1588;50.892;7.082;2022-09-13T07:12:58;5.73;;;3.70;;
3155;SDS011;1588;50.892;7.082;2022-09-13T07:18:00;5.30;;;3.93;;
3155;SDS011;1588;50.892;7.082;2022-09-13T07:23:02;11.77;;;3.87;;
3155;SDS011;1588;50.892;7.082;2022-09-13T07:28:06;9.17;;;3.40;;
3155;SDS011;1588;50.892;7.082;2022-09-13T07:33:08;6.50;;;4.40;;
3155;SDS011;1588;50.892;7.082;2022-09-13T07:38:12;9.93;;;4.00;;
3155;SDS011;1588;50.892;7.082;2022-09-13T07:43:15;8.77;;;3.60;;
3155;SDS011;1588;50.892;7.082;2022-09-13T07:48:21;7.30;;;3.57;;
3155;SDS011;1588;50.892;7.082;2022-09-13T07:53:23;5.67;;;3.40;;
3155;SDS011;1588;50.892;7.082;2022-09-13T07:58:27;11.17;;;3.73;;
3155;SDS011;1588;50.892;7.082;2022-09-13T08:03:29;4.93;;;3.70;;
3155;SDS011;1588;50.892;7.082;2022-09-13T08:08:31;6.80;;;3.60;;
3155;SDS011;1588;50.892;7.082;2022-09-13T08:13:40;9.73;;;3.63;;
3155;SDS011;1588;50.892;7.082;2022-09-13T08:18:43;8.83;;;3.30;;
3155;SDS011;1588;50.892;7.082;2022-09-13T08:23:46;11.33;;;3.70;;
3155;SDS011;1588;50.892;7.082;2022-09-13T08:28:53;7.73;;;3.70;;
3155;SDS011;1588;50.892;7.082;2022-09-13T08:33:57;8.37;;;3.00;;
3155;SDS011;1588;50.892;7.082;2022-09-13T08:39:00;4.40;;;3.07;;
3155;SDS011;1588;50.892;7.082;2022-09-13T08:44:04;5.20;;;2.80;;
3155;SDS011;1588;50.892;7.082;2022-09-13T08:49:12;6.60;;;3.10;;
3155;SDS011;1588;50.892;7.082;2022-09-13T08:54:19;4.73;;;3.30;;
3155;SDS011;1588;50.892;7.082;2022-09-13T08:59:25;6.40;;;3.10;;
3155;SDS011;1588;50.892;7.082;2022-09-13T09:04:40;4.70;;;3.00;;
3155;SDS011;1588;50.892;7.082;2022-09-13T09:09:49;3.10;;;2.70;;
3155;SDS011;1588;50.892;7.082;2022-09-13T09:14:58;5.07;;;2.70;;
3155;SDS011;1588;50.892;7.082;2022-09-13T09:20:25;11.50;;;3.03;;
3155;SDS011;1588;50.892;7.082;2022-09-13T09:25:31;4.53;;;2.67;;
3155;SDS011;1588;50.892;7.082;2022-09-13T09:30:37;4.47;;;2.50;;
3155;SDS011;1588;50.892;7.082;2022-09-13T09:35:49;6.63;;;2.77;;
3155;SDS011;1588;50.892;7.082;2022-09-13T09:41:00;8.80;;;2.60;;
3155;SDS011;1588;50.892;7.082;2022-09-13T09:46:07;2.70;;;2.27;;
3155;SDS011;1588;50.892;7.082;2022-09-13T09:51:12;9.60;;;2.73;;
3155;SDS011;1588;50.892;7.082;2022-09-13T09:56:22;6.07;;;2.50;;
3155;SDS011;1588;50.892;7.082;2022-09-13T10:01:27;3.30;;;2.73;;
3155;SDS011;1588;50.892;7.082;2022-09-13T10:06:31;5.20;;;2.40;;
3155;SDS011;1588;50.892;7.082;2022-09-13T10:11:41;4.53;;;2.83;;
3155;SDS011;1588;50.892;7.082;2022-09-13T10:16:47;6.60;;;3.17;;
3155;SDS011;1588;50.892;7.082;2022-09-13T10:22:04;6.80;;;2.50;;
3155;SDS011;1588;50.892;7.082;2022-09-13T10:27:18;7.00;;;2.90;;
3155;SDS011;1588;50.892;7.082;2022-09-13T10:32:25;6.67;;;3.37;;
3155;SDS011;1588;50.892;7.082;2022-09-13T10:37:29;5.83;;;3.53;;
3155;SDS011;1588;50.892;7.082;2022-09-13T10:42:34;3.37;;;2.60;;
3155;SDS011;1588;50.892;7.082;2022-09-13T10:47:43;4.33;;;2.93;;
3155;SDS011;1588;50.892;7.082;2022-09-13T10:52:47;29.77;;;17.00;;
3155;SDS011;1588;50.892;7.082;2022-09-13T10:57:51;5.90;;;2.90;;
3155;SDS011;1588;50.892;7.082;2022-09-13T11:03:01;6.90;;;3.20;;
3155;SDS011;1588;50.892;7.082;2022-09-13T11:13:54;7.10;;;2.77;;
3155;SDS011;1588;50.892;7.082;2022-09-13T11:19:17;3.37;;;2.60;;
3155;SDS011;1588;50.892;7.082;2022-09-13T11:24:45;4.80;;;3.20;;
3155;SDS011;1588;50.892;7.082;2022-09-13T11:30:04;5.30;;;2.80;;
3155;SDS011;1588;50.892;7.082;2022-09-13T11:35:26;4.67;;;2.83;;
3155;SDS011;1588;50.892;7.082;2022-09-13T11:40:45;10.33;;;2.33;;
3155;SDS011;1588;50.892;7.082;2022-09-13T11:45:58;5.40;;;2.70;;
3155;SDS011;1588;50.892;7.082;2022-09-13T11:51:10;8.30;;;2.77;;
3155;SDS011;1588;50.892;7.082;2022-09-13T11:56:20;3.93;;;2.47;;
3155;SDS011;1588;50.892;7.082;2022-09-13T12:01:30;5.27;;;2.30;;
3155;SDS011;1588;50.892;7.082;2022-09-13T12:18:19;8.37;;;2.73;;
3155;SDS011;1588;50.892;7.082;2022-09-13T12:23:26;5.57;;;2.20;;
3155;SDS011;1588;50.892;7.082;2022-09-13T12:28:35;7.90;;;2.60;;
3155;SDS011;1588;50.892;7.082;2022-09-13T12:33:59;2.50;;;2.30;;
3155;SDS011;1588;50.892;7.082;2022-09-13T12:44:51;3.67;;;2.37;;
3155;SDS011;1588;50.892;7.082;2022-09-13T12:50:15;7.07;;;2.33;;
3155;SDS011;1588;50.892;7.082;2022-09-13T12:55:43;6.13;;;1.97;;
3155;SDS011;1588;50.892;7.082;2022-09-13T13:01:04;4.80;;;2.03;;
3155;SDS011;1588;50.892;7.082;2022-09-13T13:06:15;2.73;;;1.80;;
3155;SDS011;1588;50.892;7.082;2022-09-13T13:11:39;3.67;;;1.70;;
3155;SDS011;1588;50.892;7.082;2022-09-13T13:16:48;3.60;;;1.90;;
3155;SDS011;1588;50.892;7.082;2022-09-13T13:21:51;6.37;;;2.80;;
3155;SDS011;1588;50.892;7.082;2022-09-13T13:26:56;3.50;;;1.90;;
3155;SDS011;1588;50.892;7.082;2022-09-13T13:32:06;6.93;;;2.10;;
3155;SDS011;1588;50.892;7.082;2022-09-13T13:37:24;4.67;;;2.13;;
3155;SDS011;1588;50.892;7.082;2022-09-13T13:42:36;4.53;;;2.53;;
3155;SDS011;1588;50.892;7.082;2022-09-13T13:47:49;20.53;;;2.80;;
3155;SDS011;1588;50.892;7.082;2022-09-13T13:53:21;14.67;;;2.30;;
3155;SDS011;1588;50.892;7.082;2022-09-13T13:58:42;5.80;;;1.77;;
3155;SDS011;1588;50.892;7.082;2022-09-13T14:09:29;1.87;;;1.77;;
3155;SDS011;1588;50.892;7.082;2022-09-13T14:14:43;2.80;;;2.07;;
3155;SDS011;1588;50.892;7.082;2022-09-13T14:20:02;4.00;;;2.10;;
3155;SDS011;1588;50.892;7.082;2022-09-13T14:25:15;4.00;;;1.77;;
3155;SDS011;1588;50.892;7.082;2022-09-13T14:30:24;3.20;;;1.70;;
3155;SDS011;1588;50.892;7.082;2022-09-13T14:35:31;11.43;;;2.03;;
3155;SDS011;1588;50.892;7.082;2022-09-13T14:40:39;8.30;;;2.47;;
3155;SDS011;1588;50.892;7.082;2022-09-13T14:45:42;5.23;;;1.80;;
3155;SDS011;1588;50.892;7.082;2022-09-13T14:50:47;4.13;;;1.70;;
3155;SDS011;1588;50.892;7.082;2022-09-13T14:55:54;1.80;;;1.57;;
3155;SDS011;1588;50.892;7.082;2022-09-13T15:01:01;14.67;;;2.13;;
3155;SDS011;1588;50.892;7.082;2022-09-13T15:06:17;5.43;;;2.10;;
3155;SDS011;1588;50.892;7.082;2022-09-13T15:11:28;3.43;;;2.90;;
3155;SDS011;1588;50.892;7.082;2022-09-13T15:16:32;3.30;;;2.00;;
3155;SDS011;1588;50.892;7.082;2022-09-13T15:21:34;4.23;;;1.90;;
3155;SDS011;1588;50.892;7.082;2022-09-13T15:26:39;1.77;;;1.60;;
3155;SDS011;1588;50.892;7.082;2022-09-13T15:31:41;20.57;;;1.93;;
3155;SDS011;1588;50.892;7.082;2022-09-13T15:36:43;6.50;;;2.67;;
3155;SDS011;1588;50.892;7.082;2022-09-13T15:41:51;2.30;;;1.83;;
3155;SDS011;1588;50.892;7.082;2022-09-13T15:46:55;10.03;;;2.43;;
3155;SDS011;1588;50.892;7.082;2022-09-13T15:52:05;7.03;;;2.00;;
3155;SDS011;1588;50.892;7.082;2022-09-13T15:57:13;4.20;;;1.83;;
3155;SDS011;1588;50.892;7.082;2022-09-13T16:02:20;8.83;;;1.63;;
3155;SDS011;1588;50.892;7.082;2022-09-13T16:07:25;4.20;;;1.80;;
3155;SDS011;1588;50.892;7.082;2022-09-13T16:12:29;7.43;;;2.17;;
3155;SDS011;1588;50.892;7.082;2022-09-13T16:21:01;3.33;;;1.80;;
3155;SDS011;1588;50.892;7.082;2022-09-13T16:26:03;7.70;;;2.00;;
3155;SDS011;1588;50.892;7.082;2022-09-13T16:31:06;4.90;;;1.83;;
3155;SDS011;1588;50.892;7.082;2022-09-13T16:36:10;3.90;;;2.77;;
3155;SDS011;1588;50.892;7.082;2022-09-13T16:41:13;5.63;;;2.73;;
3155;SDS011;1588;50.892;7.082;2022-09-13T16:46:16;7.17;;;2.43;;
3155;SDS011;1588;50.892;7.082;2022-09-13T16:51:19;2.40;;;1.60;;
3155;SDS011;1588;50.892;7.082;2022-09-13T16:56:23;2.63;;;2.43;;
3155;SDS011;1588;50.892;7.082;2022-09-13T17:01:26;4.97;;;2.53;;
3155;SDS011;1588;50.892;7.082;2022-09-13T17:06:31;3.13;;;2.40;;
3155;SDS011;1588;50.892;7.082;2022-09-13T17:11:34;4.60;;;2.40;;
3155;SDS011;1588;50.892;7.082;2022-09-13T17:16:38;6.60;;;2.10;;
3155;SDS011;1588;50.892;7.082;2022-09-13T17:21:44;3.80;;;2.27;;
3155;SDS011;1588;50.892;7.082;2022-09-13T17:26:47;6.10;;;2.40;;
3155;SDS011;1588;50.892;7.082;2022-09-13T17:31:49;7.70;;;2.67;;
3155;SDS011;1588;50.892;7.082;2022-09-13T17:36:53;4.67;;;2.87;;
3155;SDS011;1588;50.892;7.082;2022-09-13T17:42:02;3.03;;;2.50;;
3155;SDS011;1588;50.892;7.082;2022-09-13T17:47:05;7.30;;;3.00;;
3155;SDS011;1588;50.892;7.082;2022-09-13T17:52:09;3.40;;;2.40;;
3155;SDS011;1588;50.892;7.082;2022-09-13T17:57:21;5.27;;;2.97;;
3155;SDS011;1588;50.892;7.082;2022-09-13T18:02:24;7.40;;;3.00;;
3155;SDS011;1588;50.892;7.082;2022-09-13T18:07:28;5.63;;;3.57;;
3155;SDS011;1588;50.892;7.082;2022-09-13T18:12:31;4.00;;;3.17;;
3155;SDS011;1588;50.892;7.082;2022-09-13T18:17:33;8.97;;;3.70;;
3155;SDS011;1588;50.892;7.082;2022-09-13T18:22:36;5.83;;;3.70;;
3155;SDS011;1588;50.892;7.082;2022-09-13T18:27:39;6.20;;;4.00;;
3155;SDS011;1588;50.892;7.082;2022-09-13T18:32:41;17.63;;;4.20;;
3155;SDS011;1588;50.892;7.082;2022-09-13T18:37:44;9.00;;;3.90;;
3155;SDS011;1588;50.892;7.082;2022-09-13T18:42:47;7.90;;;4.30;;
3155;SDS011;1588;50.892;7.082;2022-09-13T18:47:51;8.43;;;4.60;;
3155;SDS011;1588;50.892;7.082;2022-09-13T18:52:55;12.87;;;5.07;;
3155;SDS011;1588;50.892;7.082;2022-09-13T18:57:57;8.17;;;5.23;;
3155;SDS011;1588;50.892;7.082;2022-09-13T19:02:59;11.53;;;5.17;;
3155;SDS011;1588;50.892;7.082;2022-09-13T19:08:03;10.83;;;5.03;;
3155;SDS011;1588;50.892;7.082;2022-09-13T19:13:08;14.07;;;6.17;;
3155;SDS011;1588;50.892;7.082;2022-09-13T19:18:14;11.00;;;5.90;;
3155;SDS011;1588;50.892;7.082;2022-09-13T19:23:17;8.40;;;5.03;;
3155;SDS011;1588;50.892;7.082;2022-09-13T19:28:20;12.43;;;5.93;;
3155;SDS011;1588;50.892;7.082;2022-09-13T19:33:22;6.97;;;5.13;;
3155;SDS011;1588;50.892;7.082;2022-09-13T19:38:29;11.80;;;6.23;;
3155;SDS011;1588;50.892;7.082;2022-09-13T19:43:33;14.33;;;5.83;;
3155;SDS011;1588;50.892;7.082;2022-09-13T19:48:55;17.73;;;6.50;;
3155;SDS011;1588;50.892;7.082;2022-09-13T19:54:00;16.47;;;5.97;;
3155;SDS011;1588;50.892;7.082;2022-09-13T19:59:02;20.10;;;7.37;;
3155;SDS011;1588;50.892;7.082;2022-09-13T20:04:07;9.90;;;6.03;;
3155;SDS011;1588;50.892;7.082;2022-09-13T20:09:12;15.90;;;6.50;;
3155;SDS011;1588;50.892;7.082;2022-09-13T20:14:16;12.37;;;6.93;;
3155;SDS011;1588;50.892;7.082;2022-09-13T20:19:21;13.47;;;7.00;;
3155;SDS011;1588;50.892;7.082;2022-09-13T20:24:25;15.17;;;6.90;;
3155;SDS011;1588;50.892;7.082;2022-09-13T20:29:27;12.30;;;7.37;;
3155;SDS011;1588;50.892;7.082;2022-09-13T20:34:30;21.13;;;9.80;;
3155;SDS011;1588;50.892;7.082;2022-09-13T20:39:36;16.30;;;7.57;;
3155;SDS011;1588;50.892;7.082;2022-09-13T20:44:38;15.30;;;6.90;;
3155;SDS011;1588;50.892;7.082;2022-09-13T20:49:41;13.03;;;6.33;;
3155;SDS011;1588;50.892;7.082;2022-09-13T20:54:50;10.77;;;5.80;;
3155;SDS011;1588;50.892;7.082;2022-09-13T20:59:55;7.77;;;4.80;;
3155;SDS011;1588;50.892;7.082;2022-09-13T21:04:57;12.10;;;4.60;;
3155;SDS011;1588;50.892;7.082;2022-09-13T21:10:07;9.23;;;5.00;;
3155;SDS011;1588;50.892;7.082;2022-09-13T21:15:10;9.33;;;5.00;;
3155;SDS011;1588;50.892;7.082;2022-09-13T21:20:13;9.10;;;4.80;;
3155;SDS011;1588;50.892;7.082;2022-09-13T21:25:17;8.90;;;5.00;;
3155;SDS011;1588;50.892;7.082;2022-09-13T21:30:20;12.53;;;5.13;;
3155;SDS011;1588;50.892;7.082;2022-09-13T21:35:22;13.90;;;4.87;;
3155;SDS011;1588;50.892;7.082;2022-09-13T21:40:26;10.13;;;6.13;;
3155;SDS011;1588;50.892;7.082;2022-09-13T21:45:28;12.83;;;5.87;;
3155;SDS011;1588;50.892;7.082;2022-09-13T21:50:35;16.10;;;5.97;;
3155;SDS011;1588;50.892;7.082;2022-09-13T21:55:39;10.87;;;6.27;;
3155;SDS011;1588;50.892;7.082;2022-09-13T22:00:42;14.00;;;6.13;;
3155;SDS011;1588;50.892;7.082;2022-09-13T22:05:44;16.47;;;6.77;;
3155;SDS011;1588;50.892;7.082;2022-09-13T22:10:49;14.03;;;7.00;;
3155;SDS011;1588;50.892;7.082;2022-09-13T22:15:51;13.63;;;7.23;;
3155;SDS011;1588;50.892;7.082;2022-09-13T22:20:53;13.47;;;6.50;;
3155;SDS011;1588;50.892;7.082;2022-09-13T22:25:57;13.60;;;7.80;;
3155;SDS011;1588;50.892;7.082;2022-09-13T22:31:03;15.23;;;7.87;;
3155;SDS011;1588;50.892;7.082;2022-09-13T22:36:07;10.80;;;6.30;;
3155;SDS011;1588;50.892;7.082;2022-09-13T22:41:13;18.10;;;9.03;;
3155;SDS011;1588;50.892;7.082;2022-09-13T22:46:17;18.80;;;9.80;;
3155;SDS011;1588;50.892;7.082;2022-09-13T22:51:28;20.73;;;9.67;;
3155;SDS011;1588;50.892;7.082;2022-09-13T22:56:33;17.07;;;10.07;;
3155;SDS011;1588;50.892;7.082;2022-09-13T23:01:37;17.00;;;10.30;;
3155;SDS011;1588;50.892;7.082;2022-09-13T23:06:39;27.33;;;10.70;;
3155;SDS011;1588;50.892;7.082;2022-09-13T23:11:45;36.70;;;12.53;;
3155;SDS011;1588;50.892;7.082;2022-09-13T23:16:48;26.33;;;10.50;;
3155;SDS011;1588;50.892;7.082;2022-09-13T23:22:00;27.90;;;13.10;;
3155;SDS011;1588;50.892;7.082;2022-09-13T23:27:04;31.83;;;13.20;;
3155;SDS011;1588;50.892;7.082;2022-09-13T23:32:07;24.87;;;13.27;;
3155;SDS011;1588;50.892;7.082;2022-09-13T23:37:19;29.20;;;13.73;;
3155;SDS011;1588;50.892;7.082;2022-09-13T23:42:23;33.70;;;15.50;;
3155;SDS011;1588;50.892;7.082;2022-09-13T23:47:25;35.33;;;15.70;;
3155;SDS011;1588;50.892;7.082;2022-09-13T23:52:27;39.03;;;15.33;;
3155;SDS011;1588;50.892;7.082;2022-09-13T23:57:31;36.17;;;14.67;;
